Portada
METAR-TAF:

METAR-TAF

Aeroports :

Gao, Mali

latitud: 16-16N, longitud: 000-03W, altitud: 265 m

METAR: manca

Hora: 15:51 (15:51 UTC)

Pronòstic

L'informe es va fer fa 4 hores i 51 minuts, a les 11:00 UTC
Pronòstic vàlid del 20 a les 12 UTC al 21 a les 12 UTC
Vent 12 kt del Est/Sud-Est amb ràfegues de 22 kt
Visibilitat: 6000 m
Temporalment
l' 20 a les 12 UTC al 20 a les 16 UTC
Visibilitat: 4000 m
torb alta de pols
Temporalment
l' 21 a les 07 UTC al 21 a les 12 UTC
Visibilitat: 3500 m
torb alta de pols

TAF: GAGO 201100Z 2012/2112 12012G22KT 6000 NSC TEMPO 2012/2016 4000 BLDU TEMPO 2107/2112 3500 BLDU

Observacions i pronòstics meteorològics de més de 4000 aeroports (METAR i TAF).

Les estacions disponibles són els punts grocs i vermells al mapa.

Posi el ratolí al punt desitjat per veure el nom de l'estació.

Feu clic per veure les observacions i els pronòstics meteorològics.

Per canviar el mapa: feu clic els botons verds amb una creu de color negre per apropar; al botó verd amb un guió per allunyar la imatge; o en les fletxes verdes per a mapes adjacents.


METAR-TAF: